LYBE/BEG METAR and TAF weather

Enter ICAO airport designator
Station Type Date Time Source
LYBE METAR 2018/02/22 07:00 UTC NOAA

LYBE 220700Z 07010KT 3500 -SN BKN005 BKN033 01/M00 Q1011 R12/2///95 TEMPO 1500 SN


Station Type Date Time Source
LYBE Decoded METAR 2018/02/22 07:00 UTC NOAA

Beograd / Surcin, Serbia and Montenegro (LYBE) 44-49N 020-17E 99M
Feb 22, 2018 - 02:00 AM EST / 2018.02.22 0700 UTC
Wind: from the ENE (070 degrees) at 12 MPH (10 KT):0
Visibility: 2 mile(s):0
Sky conditions: mostly cloudy
Weather: light snow
Temperature: 33 F (1 C)
Windchill: 24 F (-4 C):1
Dew Point: 32 F (0 C)
Relative Humidity: 93%
Pressure (altimeter): 29.85 in. Hg (1011 hPa)
ob: LYBE 220700Z 07010KT 3500 -SN BKN005 BKN033 01/M00 Q1011 R12/2///95 TEMPO 1500 SN
cycle: 7

Station Type Date Time Source
LYBE TAF 2018/02/22 06:21 UTC NOAA

TAF LYBE 220500Z 2206/2306 09012KT 9999 SCT010 BKN040 TX05/2213Z TN00/2206Z
TEMPO 2206/2209 3000 SN BKN005 BKN023


Example: see airport list